Impacts METAR Board
IDs:

KPHX - Phoenix/Sky Harbor, AZ, US

Updated at: 0300 UTC 22 Jun 2018
Potential Impact None Slight Moderate High
Time 21/15Z 21/16Z 21/17Z 21/18Z 21/19Z 21/20Z 21/21Z 21/22Z 21/23Z 22/00Z 22/01Z 22/02Z 22/03Z
Temp86 91 94 98 99 103 108 109 109 108 108 107 104
Dewpt43 42 39 39 38 35 33 32 28 26 28 26 29
Altim29.89 29.88 29.87 29.86 29.85 29.83 29.81 29.78 29.76 29.74 29.72 29.72 29.72
VIS10 10 10 10 10 10 10 10 10 10 10 10 10
CIG-- -- -- -- -- -- -- -- -- -- -- -- --
CoverCLRCLRCLRCLRCLRCLRCLRCLRCLRCLRCLRCLRCLR
FltCatVFRVFRVFRVFRVFRVFRVFRVFRVFRVFRVFRVFRVFR
WX--------------------------
WDir9090000320250270270290260260270
WSpd6 6 0 0 3 7 9 13 13 14 13 12 8
WGst-- -- -- -- -- -- 18 -- 22 -- 19 -- --
Raw hourly METARs
KPHX 211451Z 09006KT 10SM CLR 30/06 A2989 RMK AO2 SLP098 T03000061 51012
KPHX 211551Z 09006KT 10SM CLR 33/06 A2988 RMK AO2 SLP094 T03280056
KPHX 211651Z 00000KT 10SM CLR 34/04 A2987 RMK AO2 SLP093 T03440039
KPHX 211751Z 00000KT 10SM CLR 37/04 A2986 RMK AO2 SLP090 T03670039 10378 20267 57008
KPHX 211851Z VRB03KT 10SM CLR 37/03 A2985 RMK AO2 SLP085 T03720033
KPHX 211951Z 32007KT 10SM CLR 39/02 A2983 RMK AO2 SLP078 T03940017
KPHX 212051Z 25009G18KT 220V300 10SM CLR 42/01 A2981 RMK AO2 SLP069 T04220006 58019
KPHX 212151Z 27013KT 10SM CLR 43/00 A2978 RMK AO2 SLP061 T04280000
KPHX 212251Z 27013G22KT 10SM CLR 43/M02 A2976 RMK AO2 SLP054 T04281022
KPHX 212351Z 29014KT 10SM CLR 42/M03 A2974 RMK AO2 SLP047 T04221033 10433 20367 56022
KPHX 220051Z 26013G19KT 10SM CLR 42/M02 A2972 RMK AO2 SLP041 T04221022
KPHX 220151Z 26012KT 10SM CLR 42/M03 A2972 RMK AO2 SLP042 T04171033
KPHX 220251Z 27008KT 10SM CLR 40/M02 A2972 RMK AO2 SLP043 T04001017 55004



Page loaded:  03:28 UTC  |   08:28 PM Pacific  |   09:28 PM Mountain  |   10:28 PM Central  |   11:28 PM Eastern

 

ADVISORIES

FORECASTS

FORECASTS

OBSERVATIONS

USER TOOLS

ABOUT US